sensor_id;sensor_type;location;lat;lon;timestamp;P1;durP1;ratioP1;P2;durP2;ratioP2
9398;SDS011;4739;49.334;8.792;2023-03-05T00:01:21;26.20;;;15.27;;
9398;SDS011;4739;49.334;8.792;2023-03-05T00:04:06;29.87;;;16.27;;
9398;SDS011;4739;49.334;8.792;2023-03-05T00:06:35;27.83;;;15.90;;
9398;SDS011;4739;49.334;8.792;2023-03-05T00:09:02;30.53;;;16.30;;
9398;SDS011;4739;49.334;8.792;2023-03-05T00:11:31;28.60;;;16.40;;
9398;SDS011;4739;49.334;8.792;2023-03-05T00:13:58;28.43;;;15.43;;
9398;SDS011;4739;49.334;8.792;2023-03-05T00:16:26;27.63;;;15.13;;
9398;SDS011;4739;49.334;8.792;2023-03-05T00:18:57;31.13;;;15.50;;
9398;SDS011;4739;49.334;8.792;2023-03-05T00:23:57;28.30;;;16.80;;
9398;SDS011;4739;49.334;8.792;2023-03-05T00:26:26;30.50;;;16.70;;
9398;SDS011;4739;49.334;8.792;2023-03-05T00:28:53;31.60;;;17.57;;
9398;SDS011;4739;49.334;8.792;2023-03-05T00:31:21;32.50;;;16.20;;
9398;SDS011;4739;49.334;8.792;2023-03-05T00:33:50;28.37;;;15.47;;
9398;SDS011;4739;49.334;8.792;2023-03-05T00:36:16;28.23;;;16.20;;
9398;SDS011;4739;49.334;8.792;2023-03-05T00:38:42;30.77;;;16.60;;
9398;SDS011;4739;49.334;8.792;2023-03-05T00:41:09;28.33;;;16.30;;
9398;SDS011;4739;49.334;8.792;2023-03-05T00:43:34;27.43;;;15.80;;
9398;SDS011;4739;49.334;8.792;2023-03-05T00:46:00;27.50;;;15.53;;
9398;SDS011;4739;49.334;8.792;2023-03-05T00:48:26;32.33;;;17.70;;
9398;SDS011;4739;49.334;8.792;2023-03-05T00:53:17;29.07;;;15.80;;
9398;SDS011;4739;49.334;8.792;2023-03-05T00:55:42;34.20;;;17.23;;
9398;SDS011;4739;49.334;8.792;2023-03-05T00:58:08;30.70;;;16.50;;
9398;SDS011;4739;49.334;8.792;2023-03-05T01:00:35;31.47;;;17.60;;
9398;SDS011;4739;49.334;8.792;2023-03-05T01:03:03;29.10;;;16.33;;
9398;SDS011;4739;49.334;8.792;2023-03-05T01:05:29;32.60;;;17.73;;
9398;SDS011;4739;49.334;8.792;2023-03-05T01:07:55;31.57;;;16.90;;
9398;SDS011;4739;49.334;8.792;2023-03-05T01:10:21;34.23;;;17.47;;
9398;SDS011;4739;49.334;8.792;2023-03-05T01:12:50;32.53;;;17.70;;
9398;SDS011;4739;49.334;8.792;2023-03-05T01:15:17;30.40;;;18.13;;
9398;SDS011;4739;49.334;8.792;2023-03-05T01:17:43;28.90;;;16.93;;
9398;SDS011;4739;49.334;8.792;2023-03-05T01:20:11;33.20;;;17.63;;
9398;SDS011;4739;49.334;8.792;2023-03-05T01:22:38;36.60;;;18.47;;
9398;SDS011;4739;49.334;8.792;2023-03-05T01:25:04;32.27;;;18.07;;
9398;SDS011;4739;49.334;8.792;2023-03-05T01:27:29;33.10;;;17.53;;
9398;SDS011;4739;49.334;8.792;2023-03-05T01:29:55;34.47;;;17.70;;
9398;SDS011;4739;49.334;8.792;2023-03-05T01:32:21;27.23;;;16.77;;
9398;SDS011;4739;49.334;8.792;2023-03-05T01:34:46;34.67;;;18.40;;
9398;SDS011;4739;49.334;8.792;2023-03-05T01:37:12;35.70;;;18.70;;
9398;SDS011;4739;49.334;8.792;2023-03-05T01:39:37;33.00;;;18.33;;
9398;SDS011;4739;49.334;8.792;2023-03-05T01:42:03;31.60;;;17.50;;
9398;SDS011;4739;49.334;8.792;2023-03-05T01:44:31;34.70;;;18.00;;
9398;SDS011;4739;49.334;8.792;2023-03-05T01:46:57;34.37;;;18.40;;
9398;SDS011;4739;49.334;8.792;2023-03-05T01:49:27;32.90;;;18.47;;
9398;SDS011;4739;49.334;8.792;2023-03-05T01:54:29;32.80;;;18.70;;
9398;SDS011;4739;49.334;8.792;2023-03-05T01:57:02;30.00;;;16.57;;
9398;SDS011;4739;49.334;8.792;2023-03-05T01:59:34;34.77;;;17.90;;
9398;SDS011;4739;49.334;8.792;2023-03-05T02:02:02;35.83;;;17.90;;
9398;SDS011;4739;49.334;8.792;2023-03-05T02:04:30;34.30;;;18.67;;
9398;SDS011;4739;49.334;8.792;2023-03-05T02:07:18;36.00;;;19.27;;
9398;SDS011;4739;49.334;8.792;2023-03-05T02:09:45;33.57;;;18.13;;
9398;SDS011;4739;49.334;8.792;2023-03-05T02:12:10;35.03;;;18.93;;
9398;SDS011;4739;49.334;8.792;2023-03-05T02:14:38;34.83;;;18.33;;
9398;SDS011;4739;49.334;8.792;2023-03-05T02:17:05;35.13;;;16.73;;
9398;SDS011;4739;49.334;8.792;2023-03-05T02:19:51;32.17;;;17.47;;
9398;SDS011;4739;49.334;8.792;2023-03-05T02:22:20;40.13;;;17.53;;
9398;SDS011;4739;49.334;8.792;2023-03-05T02:24:48;30.17;;;17.33;;
9398;SDS011;4739;49.334;8.792;2023-03-05T02:27:14;28.53;;;16.23;;
9398;SDS011;4739;49.334;8.792;2023-03-05T02:29:42;32.33;;;16.60;;
9398;SDS011;4739;49.334;8.792;2023-03-05T02:32:09;34.30;;;17.87;;
9398;SDS011;4739;49.334;8.792;2023-03-05T02:34:36;30.97;;;17.17;;
9398;SDS011;4739;49.334;8.792;2023-03-05T02:37:03;33.30;;;17.47;;
9398;SDS011;4739;49.334;8.792;2023-03-05T02:39:32;31.23;;;16.53;;
9398;SDS011;4739;49.334;8.792;2023-03-05T02:42:00;36.90;;;18.43;;
9398;SDS011;4739;49.334;8.792;2023-03-05T02:44:27;31.83;;;16.80;;
9398;SDS011;4739;49.334;8.792;2023-03-05T02:46:53;34.40;;;17.63;;
9398;SDS011;4739;49.334;8.792;2023-03-05T02:49:18;29.20;;;16.87;;
9398;SDS011;4739;49.334;8.792;2023-03-05T02:51:44;30.03;;;16.03;;
9398;SDS011;4739;49.334;8.792;2023-03-05T02:54:10;33.67;;;16.30;;
9398;SDS011;4739;49.334;8.792;2023-03-05T02:56:35;32.53;;;17.80;;
9398;SDS011;4739;49.334;8.792;2023-03-05T02:59:03;29.37;;;16.33;;
9398;SDS011;4739;49.334;8.792;2023-03-05T03:01:29;30.93;;;16.93;;
9398;SDS011;4739;49.334;8.792;2023-03-05T03:03:54;31.77;;;16.20;;
9398;SDS011;4739;49.334;8.792;2023-03-05T03:06:20;33.60;;;16.73;;
9398;SDS011;4739;49.334;8.792;2023-03-05T03:08:46;31.93;;;15.83;;
9398;SDS011;4739;49.334;8.792;2023-03-05T03:11:11;28.77;;;15.57;;
9398;SDS011;4739;49.334;8.792;2023-03-05T03:13:38;30.37;;;15.90;;
9398;SDS011;4739;49.334;8.792;2023-03-05T03:16:06;30.33;;;16.40;;
9398;SDS011;4739;49.334;8.792;2023-03-05T03:18:34;30.20;;;17.10;;
9398;SDS011;4739;49.334;8.792;2023-03-05T03:21:00;34.50;;;16.83;;
9398;SDS011;4739;49.334;8.792;2023-03-05T03:23:26;32.20;;;17.10;;
9398;SDS011;4739;49.334;8.792;2023-03-05T03:25:53;32.83;;;16.80;;
9398;SDS011;4739;49.334;8.792;2023-03-05T03:28:19;29.80;;;16.13;;
9398;SDS011;4739;49.334;8.792;2023-03-05T03:30:45;36.20;;;16.53;;
9398;SDS011;4739;49.334;8.792;2023-03-05T03:33:11;29.97;;;16.50;;
9398;SDS011;4739;49.334;8.792;2023-03-05T03:35:37;31.43;;;17.70;;
9398;SDS011;4739;49.334;8.792;2023-03-05T03:38:03;32.27;;;16.47;;
9398;SDS011;4739;49.334;8.792;2023-03-05T03:40:29;31.67;;;16.53;;
9398;SDS011;4739;49.334;8.792;2023-03-05T03:42:56;29.17;;;16.57;;
9398;SDS011;4739;49.334;8.792;2023-03-05T03:45:22;30.90;;;16.27;;
9398;SDS011;4739;49.334;8.792;2023-03-05T03:47:48;30.57;;;16.67;;
9398;SDS011;4739;49.334;8.792;2023-03-05T03:50:15;31.40;;;17.50;;
9398;SDS011;4739;49.334;8.792;2023-03-05T03:52:42;33.47;;;17.13;;
9398;SDS011;4739;49.334;8.792;2023-03-05T03:55:07;31.90;;;16.83;;
9398;SDS011;4739;49.334;8.792;2023-03-05T03:57:35;28.77;;;15.50;;
9398;SDS011;4739;49.334;8.792;2023-03-05T04:00:01;33.60;;;17.37;;
9398;SDS011;4739;49.334;8.792;2023-03-05T04:02:31;29.37;;;16.77;;
9398;SDS011;4739;49.334;8.792;2023-03-05T04:04:56;27.63;;;16.67;;
9398;SDS011;4739;49.334;8.792;2023-03-05T04:07:22;30.67;;;17.30;;
9398;SDS011;4739;49.334;8.792;2023-03-05T04:09:49;36.83;;;17.50;;
9398;SDS011;4739;49.334;8.792;2023-03-05T04:12:14;33.73;;;16.70;;
9398;SDS011;4739;49.334;8.792;2023-03-05T04:14:42;35.27;;;17.30;;
9398;SDS011;4739;49.334;8.792;2023-03-05T04:17:10;29.53;;;15.17;;
9398;SDS011;4739;49.334;8.792;2023-03-05T04:19:37;30.23;;;16.50;;
9398;SDS011;4739;49.334;8.792;2023-03-05T04:22:15;29.47;;;16.47;;
9398;SDS011;4739;49.334;8.792;2023-03-05T04:24:41;32.07;;;15.73;;
9398;SDS011;4739;49.334;8.792;2023-03-05T04:27:07;30.57;;;16.10;;
9398;SDS011;4739;49.334;8.792;2023-03-05T04:29:34;30.67;;;17.20;;
9398;SDS011;4739;49.334;8.792;2023-03-05T04:32:00;27.70;;;15.20;;
9398;SDS011;4739;49.334;8.792;2023-03-05T04:34:26;28.27;;;14.90;;
9398;SDS011;4739;49.334;8.792;2023-03-05T04:36:56;31.73;;;16.33;;
9398;SDS011;4739;49.334;8.792;2023-03-05T04:39:21;30.00;;;15.80;;
9398;SDS011;4739;49.334;8.792;2023-03-05T04:41:47;31.73;;;16.33;;
9398;SDS011;4739;49.334;8.792;2023-03-05T04:44:13;29.80;;;15.83;;
9398;SDS011;4739;49.334;8.792;2023-03-05T04:46:41;31.67;;;16.13;;
9398;SDS011;4739;49.334;8.792;2023-03-05T04:49:07;30.87;;;16.10;;
9398;SDS011;4739;49.334;8.792;2023-03-05T04:51:33;27.70;;;15.07;;
9398;SDS011;4739;49.334;8.792;2023-03-05T04:53:59;34.47;;;16.37;;
9398;SDS011;4739;49.334;8.792;2023-03-05T04:56:25;29.47;;;16.00;;
9398;SDS011;4739;49.334;8.792;2023-03-05T04:58:50;31.80;;;16.33;;
9398;SDS011;4739;49.334;8.792;2023-03-05T05:01:16;30.17;;;15.23;;
9398;SDS011;4739;49.334;8.792;2023-03-05T05:03:42;28.97;;;15.77;;
9398;SDS011;4739;49.334;8.792;2023-03-05T05:06:07;29.87;;;15.63;;
9398;SDS011;4739;49.334;8.792;2023-03-05T05:08:34;25.17;;;15.03;;
9398;SDS011;4739;49.334;8.792;2023-03-05T05:11:02;31.70;;;16.53;;
9398;SDS011;4739;49.334;8.792;2023-03-05T05:13:30;25.50;;;15.07;;
9398;SDS011;4739;49.334;8.792;2023-03-05T05:15:56;27.57;;;14.90;;
9398;SDS011;4739;49.334;8.792;2023-03-05T05:18:22;28.23;;;15.67;;
9398;SDS011;4739;49.334;8.792;2023-03-05T05:20:48;31.03;;;15.43;;
9398;SDS011;4739;49.334;8.792;2023-03-05T05:23:14;29.50;;;16.97;;
9398;SDS011;4739;49.334;8.792;2023-03-05T05:25:44;31.93;;;16.03;;
9398;SDS011;4739;49.334;8.792;2023-03-05T05:28:10;29.07;;;15.23;;
9398;SDS011;4739;49.334;8.792;2023-03-05T05:30:37;29.87;;;14.63;;
9398;SDS011;4739;49.334;8.792;2023-03-05T05:33:03;26.45;;;15.20;;
9398;SDS011;4739;49.334;8.792;2023-03-05T05:35:28;28.73;;;16.17;;
9398;SDS011;4739;49.334;8.792;2023-03-05T05:37:55;29.20;;;16.47;;
9398;SDS011;4739;49.334;8.792;2023-03-05T05:40:21;30.63;;;15.83;;
9398;SDS011;4739;49.334;8.792;2023-03-05T05:42:47;30.13;;;16.67;;
9398;SDS011;4739;49.334;8.792;2023-03-05T05:45:12;27.43;;;15.47;;
9398;SDS011;4739;49.334;8.792;2023-03-05T05:47:38;25.80;;;14.63;;
9398;SDS011;4739;49.334;8.792;2023-03-05T05:50:04;30.07;;;16.00;;
9398;SDS011;4739;49.334;8.792;2023-03-05T05:52:30;28.63;;;14.83;;
9398;SDS011;4739;49.334;8.792;2023-03-05T05:54:55;28.03;;;15.10;;
9398;SDS011;4739;49.334;8.792;2023-03-05T05:57:21;32.60;;;17.00;;
9398;SDS011;4739;49.334;8.792;2023-03-05T05:59:47;28.33;;;15.30;;
9398;SDS011;4739;49.334;8.792;2023-03-05T06:02:13;33.60;;;19.07;;
9398;SDS011;4739;49.334;8.792;2023-03-05T06:04:38;32.83;;;18.53;;
9398;SDS011;4739;49.334;8.792;2023-03-05T06:07:04;30.87;;;17.60;;
9398;SDS011;4739;49.334;8.792;2023-03-05T06:09:30;29.40;;;15.97;;
9398;SDS011;4739;49.334;8.792;2023-03-05T06:11:56;30.43;;;16.70;;
9398;SDS011;4739;49.334;8.792;2023-03-05T06:14:21;32.43;;;16.53;;
9398;SDS011;4739;49.334;8.792;2023-03-05T06:16:47;28.13;;;16.37;;
9398;SDS011;4739;49.334;8.792;2023-03-05T06:19:14;32.93;;;16.83;;
9398;SDS011;4739;49.334;8.792;2023-03-05T06:21:40;31.00;;;17.43;;
9398;SDS011;4739;49.334;8.792;2023-03-05T06:24:07;32.63;;;17.50;;
9398;SDS011;4739;49.334;8.792;2023-03-05T06:26:35;33.60;;;16.73;;
9398;SDS011;4739;49.334;8.792;2023-03-05T06:29:00;30.33;;;15.63;;
9398;SDS011;4739;49.334;8.792;2023-03-05T06:31:28;30.20;;;17.27;;
9398;SDS011;4739;49.334;8.792;2023-03-05T06:33:58;34.80;;;17.23;;
9398;SDS011;4739;49.334;8.792;2023-03-05T06:36:26;36.97;;;17.63;;
9398;SDS011;4739;49.334;8.792;2023-03-05T06:38:53;30.40;;;17.07;;
9398;SDS011;4739;49.334;8.792;2023-03-05T06:41:21;30.10;;;16.43;;
9398;SDS011;4739;49.334;8.792;2023-03-05T06:43:56;35.53;;;17.30;;
9398;SDS011;4739;49.334;8.792;2023-03-05T06:46:25;36.87;;;18.07;;
9398;SDS011;4739;49.334;8.792;2023-03-05T06:48:53;34.70;;;18.40;;
9398;SDS011;4739;49.334;8.792;2023-03-05T06:51:29;31.07;;;17.07;;
9398;SDS011;4739;49.334;8.792;2023-03-05T06:53:59;30.27;;;17.73;;
9398;SDS011;4739;49.334;8.792;2023-03-05T06:56:27;31.60;;;16.50;;
9398;SDS011;4739;49.334;8.792;2023-03-05T06:58:54;33.27;;;17.67;;
9398;SDS011;4739;49.334;8.792;2023-03-05T07:01:20;31.40;;;17.90;;
9398;SDS011;4739;49.334;8.792;2023-03-05T07:03:49;30.13;;;18.23;;
9398;SDS011;4739;49.334;8.792;2023-03-05T07:06:16;34.87;;;18.73;;
9398;SDS011;4739;49.334;8.792;2023-03-05T07:08:44;33.90;;;18.07;;
9398;SDS011;4739;49.334;8.792;2023-03-05T07:11:17;33.03;;;18.90;;
9398;SDS011;4739;49.334;8.792;2023-03-05T07:13:44;33.77;;;17.90;;
9398;SDS011;4739;49.334;8.792;2023-03-05T07:16:18;35.20;;;18.23;;
9398;SDS011;4739;49.334;8.792;2023-03-05T07:18:49;32.57;;;18.20;;
9398;SDS011;4739;49.334;8.792;2023-03-05T07:21:18;36.63;;;18.43;;
9398;SDS011;4739;49.334;8.792;2023-03-05T07:23:47;34.90;;;18.40;;
9398;SDS011;4739;49.334;8.792;2023-03-05T07:26:14;37.43;;;18.80;;
9398;SDS011;4739;49.334;8.792;2023-03-05T07:28:40;29.93;;;17.37;;
9398;SDS011;4739;49.334;8.792;2023-03-05T07:31:10;35.33;;;18.77;;
9398;SDS011;4739;49.334;8.792;2023-03-05T07:33:38;35.67;;;18.50;;
9398;SDS011;4739;49.334;8.792;2023-03-05T07:36:06;33.63;;;17.47;;
9398;SDS011;4739;49.334;8.792;2023-03-05T07:38:33;34.63;;;17.73;;
9398;SDS011;4739;49.334;8.792;2023-03-05T07:41:02;32.97;;;17.47;;
9398;SDS011;4739;49.334;8.792;2023-03-05T07:43:30;35.53;;;18.57;;
9398;SDS011;4739;49.334;8.792;2023-03-05T07:45:55;34.83;;;18.70;;
9398;SDS011;4739;49.334;8.792;2023-03-05T07:48:21;34.83;;;18.97;;
9398;SDS011;4739;49.334;8.792;2023-03-05T07:53:13;33.27;;;18.50;;
9398;SDS011;4739;49.334;8.792;2023-03-05T07:55:45;33.33;;;17.80;;
9398;SDS011;4739;49.334;8.792;2023-03-05T07:58:12;33.10;;;18.03;;
9398;SDS011;4739;49.334;8.792;2023-03-05T08:00:39;32.07;;;18.40;;
9398;SDS011;4739;49.334;8.792;2023-03-05T08:03:05;32.03;;;17.97;;
9398;SDS011;4739;49.334;8.792;2023-03-05T08:05:31;31.73;;;18.93;;
9398;SDS011;4739;49.334;8.792;2023-03-05T08:07:57;34.07;;;17.93;;
9398;SDS011;4739;49.334;8.792;2023-03-05T08:10:23;37.53;;;17.13;;
9398;SDS011;4739;49.334;8.792;2023-03-05T08:12:49;32.53;;;18.20;;
9398;SDS011;4739;49.334;8.792;2023-03-05T08:15:15;32.23;;;18.60;;
9398;SDS011;4739;49.334;8.792;2023-03-05T08:17:42;32.70;;;17.87;;
9398;SDS011;4739;49.334;8.792;2023-03-05T08:20:08;33.83;;;18.30;;
9398;SDS011;4739;49.334;8.792;2023-03-05T08:22:35;30.23;;;17.30;;
9398;SDS011;4739;49.334;8.792;2023-03-05T08:25:02;34.27;;;17.80;;
9398;SDS011;4739;49.334;8.792;2023-03-05T08:27:29;34.00;;;17.20;;
9398;SDS011;4739;49.334;8.792;2023-03-05T08:29:56;28.47;;;15.83;;
9398;SDS011;4739;49.334;8.792;2023-03-05T08:32:22;31.03;;;17.53;;
9398;SDS011;4739;49.334;8.792;2023-03-05T08:34:47;34.53;;;17.40;;
9398;SDS011;4739;49.334;8.792;2023-03-05T08:37:14;35.40;;;17.87;;
9398;SDS011;4739;49.334;8.792;2023-03-05T08:39:40;34.03;;;17.40;;
9398;SDS011;4739;49.334;8.792;2023-03-05T08:42:06;29.63;;;18.13;;
9398;SDS011;4739;49.334;8.792;2023-03-05T08:44:31;29.00;;;16.97;;
9398;SDS011;4739;49.334;8.792;2023-03-05T08:46:58;30.17;;;16.87;;
9398;SDS011;4739;49.334;8.792;2023-03-05T08:49:24;29.90;;;17.50;;
9398;SDS011;4739;49.334;8.792;2023-03-05T08:51:51;23.20;;;14.47;;
9398;SDS011;4739;49.334;8.792;2023-03-05T08:54:16;27.23;;;16.20;;
9398;SDS011;4739;49.334;8.792;2023-03-05T08:56:42;23.77;;;15.13;;
9398;SDS011;4739;49.334;8.792;2023-03-05T08:59:08;31.90;;;15.90;;
9398;SDS011;4739;49.334;8.792;2023-03-05T09:01:35;25.70;;;15.43;;
9398;SDS011;4739;49.334;8.792;2023-03-05T09:04:00;25.87;;;15.30;;
9398;SDS011;4739;49.334;8.792;2023-03-05T09:06:26;25.37;;;15.90;;
9398;SDS011;4739;49.334;8.792;2023-03-05T09:08:53;26.17;;;15.43;;
9398;SDS011;4739;49.334;8.792;2023-03-05T09:11:20;26.00;;;15.83;;
9398;SDS011;4739;49.334;8.792;2023-03-05T09:13:47;26.63;;;16.77;;
9398;SDS011;4739;49.334;8.792;2023-03-05T09:16:14;24.47;;;15.07;;
9398;SDS011;4739;49.334;8.792;2023-03-05T09:18:42;23.20;;;15.80;;
9398;SDS011;4739;49.334;8.792;2023-03-05T09:21:13;22.97;;;14.93;;
9398;SDS011;4739;49.334;8.792;2023-03-05T09:23:41;22.83;;;14.50;;
9398;SDS011;4739;49.334;8.792;2023-03-05T09:26:07;24.77;;;15.27;;
9398;SDS011;4739;49.334;8.792;2023-03-05T09:28:36;24.13;;;14.70;;
9398;SDS011;4739;49.334;8.792;2023-03-05T09:31:04;21.13;;;15.10;;
9398;SDS011;4739;49.334;8.792;2023-03-05T09:33:31;22.90;;;13.97;;
9398;SDS011;4739;49.334;8.792;2023-03-05T09:35:58;22.67;;;14.20;;
9398;SDS011;4739;49.334;8.792;2023-03-05T09:38:24;23.43;;;14.50;;
9398;SDS011;4739;49.334;8.792;2023-03-05T09:44:10;70.93;;;42.70;;
9398;SDS011;4739;49.334;8.792;2023-03-05T09:47:42;28.70;;;18.20;;
9398;SDS011;4739;49.334;8.792;2023-03-05T09:52:56;23.77;;;15.00;;
9398;SDS011;4739;49.334;8.792;2023-03-05T10:00:45;19.33;;;12.77;;
9398;SDS011;4739;49.334;8.792;2023-03-05T10:03:24;18.97;;;13.33;;
9398;SDS011;4739;49.334;8.792;2023-03-05T10:09:06;15.47;;;10.77;;
9398;SDS011;4739;49.334;8.792;2023-03-05T10:11:53;12.70;;;8.23;;
9398;SDS011;4739;49.334;8.792;2023-03-05T10:14:23;10.90;;;7.20;;
9398;SDS011;4739;49.334;8.792;2023-03-05T10:25:49;11.67;;;7.67;;
9398;SDS011;4739;49.334;8.792;2023-03-05T10:28:26;11.53;;;7.57;;
9398;SDS011;4739;49.334;8.792;2023-03-05T10:42:49;8.07;;;5.93;;
9398;SDS011;4739;49.334;8.792;2023-03-05T10:45:25;10.53;;;6.90;;
9398;SDS011;4739;49.334;8.792;2023-03-05T10:48:11;11.30;;;7.10;;
9398;SDS011;4739;49.334;8.792;2023-03-05T10:53:34;9.57;;;6.30;;
9398;SDS011;4739;49.334;8.792;2023-03-05T10:56:08;9.10;;;6.37;;
9398;SDS011;4739;49.334;8.792;2023-03-05T10:58:36;16.97;;;10.07;;
9398;SDS011;4739;49.334;8.792;2023-03-05T11:01:04;13.20;;;9.70;;
9398;SDS011;4739;49.334;8.792;2023-03-05T11:09:18;13.97;;;9.20;;
9398;SDS011;4739;49.334;8.792;2023-03-05T11:12:09;22.67;;;19.77;;
9398;SDS011;4739;49.334;8.792;2023-03-05T11:14:41;11.93;;;7.80;;
9398;SDS011;4739;49.334;8.792;2023-03-05T11:17:40;11.00;;;7.63;;
9398;SDS011;4739;49.334;8.792;2023-03-05T11:25:57;10.23;;;6.77;;
9398;SDS011;4739;49.334;8.792;2023-03-05T11:28:35;9.90;;;7.53;;
9398;SDS011;4739;49.334;8.792;2023-03-05T11:34:03;11.03;;;7.87;;
9398;SDS011;4739;49.334;8.792;2023-03-05T11:36:35;12.97;;;7.03;;
9398;SDS011;4739;49.334;8.792;2023-03-05T11:41:41;12.23;;;7.80;;
9398;SDS011;4739;49.334;8.792;2023-03-05T11:44:18;12.07;;;7.10;;
9398;SDS011;4739;49.334;8.792;2023-03-05T11:46:58;12.87;;;7.00;;
9398;SDS011;4739;49.334;8.792;2023-03-05T11:49:45;12.90;;;6.97;;
9398;SDS011;4739;49.334;8.792;2023-03-05T11:52:19;11.97;;;7.83;;
9398;SDS011;4739;49.334;8.792;2023-03-05T11:57:23;13.03;;;7.80;;
9398;SDS011;4739;49.334;8.792;2023-03-05T11:59:51;13.77;;;8.10;;
9398;SDS011;4739;49.334;8.792;2023-03-05T12:02:20;11.50;;;7.77;;
9398;SDS011;4739;49.334;8.792;2023-03-05T12:04:48;14.03;;;7.67;;
9398;SDS011;4739;49.334;8.792;2023-03-05T12:07:15;13.33;;;8.40;;
9398;SDS011;4739;49.334;8.792;2023-03-05T12:09:50;12.70;;;8.67;;
9398;SDS011;4739;49.334;8.792;2023-03-05T12:12:34;13.80;;;7.63;;
9398;SDS011;4739;49.334;8.792;2023-03-05T12:15:21;13.23;;;8.77;;
9398;SDS011;4739;49.334;8.792;2023-03-05T12:23:26;13.20;;;8.03;;
9398;SDS011;4739;49.334;8.792;2023-03-05T12:25:53;9.60;;;6.13;;
9398;SDS011;4739;49.334;8.792;2023-03-05T12:29:11;10.20;;;6.33;;
9398;SDS011;4739;49.334;8.792;2023-03-05T12:38:54;9.53;;;6.40;;
9398;SDS011;4739;49.334;8.792;2023-03-05T12:43:54;7.43;;;5.33;;
9398;SDS011;4739;49.334;8.792;2023-03-05T12:46:39;9.07;;;6.27;;
9398;SDS011;4739;49.334;8.792;2023-03-05T12:51:44;10.00;;;5.30;;
9398;SDS011;4739;49.334;8.792;2023-03-05T12:54:26;7.80;;;5.17;;
9398;SDS011;4739;49.334;8.792;2023-03-05T12:57:14;8.07;;;5.13;;
9398;SDS011;4739;49.334;8.792;2023-03-05T13:00:21;10.17;;;6.00;;
9398;SDS011;4739;49.334;8.792;2023-03-05T13:02:45;10.33;;;5.50;;
9398;SDS011;4739;49.334;8.792;2023-03-05T13:07:48;6.33;;;4.83;;
9398;SDS011;4739;49.334;8.792;2023-03-05T13:10:27;8.47;;;4.73;;
9398;SDS011;4739;49.334;8.792;2023-03-05T13:12:54;5.70;;;4.53;;
9398;SDS011;4739;49.334;8.792;2023-03-05T13:15:23;9.00;;;4.00;;
9398;SDS011;4739;49.334;8.792;2023-03-05T13:17:56;7.40;;;5.20;;
9398;SDS011;4739;49.334;8.792;2023-03-05T13:20:39;5.97;;;4.20;;
9398;SDS011;4739;49.334;8.792;2023-03-05T13:26:20;10.37;;;5.27;;
9398;SDS011;4739;49.334;8.792;2023-03-05T13:28:42;8.13;;;5.83;;
9398;SDS011;4739;49.334;8.792;2023-03-05T13:31:13;6.50;;;4.67;;
9398;SDS011;4739;49.334;8.792;2023-03-05T13:33:48;6.90;;;3.90;;
9398;SDS011;4739;49.334;8.792;2023-03-05T13:36:19;6.73;;;3.70;;
9398;SDS011;4739;49.334;8.792;2023-03-05T13:38:45;6.43;;;4.00;;
9398;SDS011;4739;49.334;8.792;2023-03-05T13:43:58;6.67;;;4.67;;
9398;SDS011;4739;49.334;8.792;2023-03-05T13:49:20;5.33;;;3.87;;
9398;SDS011;4739;49.334;8.792;2023-03-05T13:51:52;9.17;;;5.20;;
9398;SDS011;4739;49.334;8.792;2023-03-05T13:54:23;7.57;;;4.70;;
9398;SDS011;4739;49.334;8.792;2023-03-05T13:56:51;6.17;;;4.57;;
9398;SDS011;4739;49.334;8.792;2023-03-05T13:59:21;8.10;;;4.40;;
9398;SDS011;4739;49.334;8.792;2023-03-05T14:01:48;5.97;;;3.50;;
9398;SDS011;4739;49.334;8.792;2023-03-05T14:04:17;6.93;;;4.40;;
9398;SDS011;4739;49.334;8.792;2023-03-05T14:06:58;4.50;;;3.20;;
9398;SDS011;4739;49.334;8.792;2023-03-05T14:12:05;7.43;;;5.23;;
9398;SDS011;4739;49.334;8.792;2023-03-05T14:14:46;4.53;;;2.97;;
9398;SDS011;4739;49.334;8.792;2023-03-05T14:17:19;5.13;;;3.40;;
9398;SDS011;4739;49.334;8.792;2023-03-05T14:22:34;6.47;;;4.00;;
9398;SDS011;4739;49.334;8.792;2023-03-05T14:25:03;6.80;;;4.17;;
9398;SDS011;4739;49.334;8.792;2023-03-05T14:27:32;5.47;;;4.20;;
9398;SDS011;4739;49.334;8.792;2023-03-05T14:30:00;6.40;;;4.07;;
9398;SDS011;4739;49.334;8.792;2023-03-05T14:32:42;6.60;;;4.67;;
9398;SDS011;4739;49.334;8.792;2023-03-05T14:35:18;6.63;;;4.00;;
9398;SDS011;4739;49.334;8.792;2023-03-05T14:37:49;7.50;;;4.97;;
9398;SDS011;4739;49.334;8.792;2023-03-05T14:40:28;8.13;;;4.73;;
9398;SDS011;4739;49.334;8.792;2023-03-05T14:42:56;5.70;;;4.13;;
9398;SDS011;4739;49.334;8.792;2023-03-05T14:45:35;6.23;;;3.87;;
9398;SDS011;4739;49.334;8.792;2023-03-05T14:48:03;7.77;;;3.90;;
9398;SDS011;4739;49.334;8.792;2023-03-05T14:53:05;7.97;;;3.90;;
9398;SDS011;4739;49.334;8.792;2023-03-05T14:55:33;4.67;;;3.70;;
9398;SDS011;4739;49.334;8.792;2023-03-05T14:58:08;6.50;;;4.00;;
9398;SDS011;4739;49.334;8.792;2023-03-05T15:00:37;8.03;;;4.80;;
9398;SDS011;4739;49.334;8.792;2023-03-05T15:03:04;5.80;;;3.90;;
9398;SDS011;4739;49.334;8.792;2023-03-05T15:05:29;4.60;;;3.60;;
9398;SDS011;4739;49.334;8.792;2023-03-05T15:07:55;5.33;;;3.50;;
9398;SDS011;4739;49.334;8.792;2023-03-05T15:10:22;6.43;;;3.97;;
9398;SDS011;4739;49.334;8.792;2023-03-05T15:12:50;5.83;;;3.90;;
9398;SDS011;4739;49.334;8.792;2023-03-05T15:15:17;7.20;;;3.73;;
9398;SDS011;4739;49.334;8.792;2023-03-05T15:17:45;7.53;;;5.43;;
9398;SDS011;4739;49.334;8.792;2023-03-05T15:20:19;6.93;;;4.27;;
9398;SDS011;4739;49.334;8.792;2023-03-05T15:22:47;6.57;;;3.90;;
9398;SDS011;4739;49.334;8.792;2023-03-05T15:25:13;4.63;;;3.20;;
9398;SDS011;4739;49.334;8.792;2023-03-05T15:27:39;5.30;;;3.70;;
9398;SDS011;4739;49.334;8.792;2023-03-05T15:30:06;5.33;;;3.50;;
9398;SDS011;4739;49.334;8.792;2023-03-05T15:32:41;5.60;;;3.30;;
9398;SDS011;4739;49.334;8.792;2023-03-05T15:35:08;4.83;;;3.40;;
9398;SDS011;4739;49.334;8.792;2023-03-05T15:37:34;5.47;;;3.33;;
9398;SDS011;4739;49.334;8.792;2023-03-05T15:40:00;4.97;;;2.70;;
9398;SDS011;4739;49.334;8.792;2023-03-05T15:42:26;6.63;;;3.77;;
9398;SDS011;4739;49.334;8.792;2023-03-05T15:44:51;24.40;;;20.23;;
9398;SDS011;4739;49.334;8.792;2023-03-05T15:47:17;12.67;;;11.47;;
9398;SDS011;4739;49.334;8.792;2023-03-05T15:49:43;11.53;;;9.10;;
9398;SDS011;4739;49.334;8.792;2023-03-05T15:52:08;13.63;;;9.40;;
9398;SDS011;4739;49.334;8.792;2023-03-05T15:54:34;8.63;;;5.97;;
9398;SDS011;4739;49.334;8.792;2023-03-05T15:57:03;16.30;;;12.63;;
9398;SDS011;4739;49.334;8.792;2023-03-05T15:59:35;22.80;;;17.77;;
9398;SDS011;4739;49.334;8.792;2023-03-05T16:02:01;9.70;;;6.43;;
9398;SDS011;4739;49.334;8.792;2023-03-05T16:04:27;5.67;;;3.93;;
9398;SDS011;4739;49.334;8.792;2023-03-05T16:06:53;4.30;;;3.33;;
9398;SDS011;4739;49.334;8.792;2023-03-05T16:09:20;4.53;;;2.90;;
9398;SDS011;4739;49.334;8.792;2023-03-05T16:11:46;4.07;;;3.40;;
9398;SDS011;4739;49.334;8.792;2023-03-05T16:14:16;5.10;;;3.43;;
9398;SDS011;4739;49.334;8.792;2023-03-05T16:16:47;5.83;;;3.57;;
9398;SDS011;4739;49.334;8.792;2023-03-05T16:19:13;4.87;;;3.00;;
9398;SDS011;4739;49.334;8.792;2023-03-05T16:21:41;4.53;;;3.30;;
9398;SDS011;4739;49.334;8.792;2023-03-05T16:24:07;6.57;;;3.90;;
9398;SDS011;4739;49.334;8.792;2023-03-05T16:26:33;6.27;;;4.00;;
9398;SDS011;4739;49.334;8.792;2023-03-05T16:29:04;5.10;;;3.27;;
9398;SDS011;4739;49.334;8.792;2023-03-05T16:31:32;4.20;;;3.10;;
9398;SDS011;4739;49.334;8.792;2023-03-05T16:33:59;5.93;;;3.40;;
9398;SDS011;4739;49.334;8.792;2023-03-05T16:36:26;5.67;;;3.40;;
9398;SDS011;4739;49.334;8.792;2023-03-05T16:38:54;5.23;;;3.63;;
9398;SDS011;4739;49.334;8.792;2023-03-05T16:41:21;4.63;;;3.37;;
9398;SDS011;4739;49.334;8.792;2023-03-05T16:43:48;5.10;;;3.27;;
9398;SDS011;4739;49.334;8.792;2023-03-05T16:46:14;6.30;;;3.40;;
9398;SDS011;4739;49.334;8.792;2023-03-05T16:48:41;7.27;;;3.70;;
9398;SDS011;4739;49.334;8.792;2023-03-05T16:51:08;5.83;;;3.13;;